createdAt,value
2018-02-26T00:00:00.795Z,1.92
2018-02-26T00:05:34.212Z,1.80
2018-02-26T00:08:06.751Z,1.63
2018-02-26T00:10:35.790Z,2.07
2018-02-26T00:13:15.130Z,2.00
2018-02-26T00:15:53.159Z,1.65
2018-02-26T00:18:34.744Z,1.75
2018-02-26T00:21:04.865Z,2.22
2018-02-26T00:23:37.834Z,1.80
2018-02-26T00:26:05.975Z,1.77
2018-02-26T00:28:34.965Z,2.22
2018-02-26T00:31:14.646Z,1.90
2018-02-26T00:33:43.544Z,2.42
2018-02-26T00:36:13.760Z,1.85
2018-02-26T00:38:41.859Z,1.90
2018-02-26T00:41:21.025Z,2.30
2018-02-26T00:44:07.772Z,1.73
2018-02-26T00:46:36.871Z,2.30
2018-02-26T00:49:08.218Z,2.25
2018-02-26T00:51:36.344Z,2.40
2018-02-26T00:54:04.476Z,2.40
2018-02-26T00:56:34.565Z,2.85
2018-02-26T00:59:15.126Z,2.63
2018-02-26T01:01:43.285Z,2.40
2018-02-26T01:04:15.020Z,2.67
2018-02-26T01:06:45.075Z,2.27
2018-02-26T01:09:13.199Z,1.73
2018-02-26T01:11:43.236Z,3.37
2018-02-26T01:14:11.340Z,2.00
2018-02-26T01:16:40.473Z,2.30
2018-02-26T01:19:10.538Z,2.70
2018-02-26T01:21:49.023Z,1.87
2018-02-26T01:24:20.728Z,2.30
2018-02-26T01:26:49.597Z,2.83
2018-02-26T01:29:18.655Z,3.53
2018-02-26T01:31:53.720Z,2.58
2018-02-26T01:34:21.924Z,2.10
2018-02-26T01:36:55.887Z,1.92
2018-02-26T01:39:25.118Z,2.85
2018-02-26T01:41:53.147Z,2.17
2018-02-26T01:44:46.922Z,2.40
2018-02-26T01:47:16.966Z,1.95
2018-02-26T01:49:58.142Z,3.30
2018-02-26T01:52:30.082Z,2.80
2018-02-26T01:54:59.253Z,2.60
2018-02-26T01:57:30.111Z,2.23
2018-02-26T01:59:59.132Z,2.80
2018-02-26T02:02:27.325Z,2.43
2018-02-26T02:05:00.743Z,2.90
2018-02-26T02:07:28.855Z,1.50
2018-02-26T02:09:56.937Z,1.93
2018-02-26T02:12:26.583Z,2.70
2018-02-26T02:15:08.674Z,2.60
2018-02-26T02:20:32.775Z,2.28
2018-02-26T02:23:05.306Z,2.78
2018-02-26T02:25:37.223Z,3.30
2018-02-26T02:28:05.360Z,2.83
2018-02-26T02:30:37.640Z,2.60
2018-02-26T02:33:07.433Z,2.67
2018-02-26T02:35:40.622Z,3.20
2018-02-26T02:38:28.808Z,3.07
2018-02-26T02:40:56.883Z,2.30
2018-02-26T02:43:24.987Z,2.90
2018-02-26T02:46:07.928Z,2.53
2018-02-26T02:48:36.044Z,2.80
2018-02-26T02:51:05.217Z,2.70
2018-02-26T02:53:36.002Z,2.80
2018-02-26T02:56:04.149Z,3.30
2018-02-26T02:58:35.085Z,2.55
2018-02-26T03:01:05.170Z,2.87
2018-02-26T03:03:36.816Z,3.13
2018-02-26T03:06:08.691Z,3.50
2018-02-26T03:08:37.784Z,2.90
2018-02-26T03:11:12.146Z,2.80
2018-02-26T03:13:40.286Z,3.27
2018-02-26T03:16:08.366Z,3.33
2018-02-26T03:18:44.242Z,3.22
2018-02-26T03:21:16.441Z,3.25
2018-02-26T03:23:46.295Z,2.90
2018-02-26T03:26:18.569Z,2.80
2018-02-26T03:28:48.652Z,2.70
2018-02-26T03:31:27.296Z,3.07
2018-02-26T03:36:56.826Z,2.73
2018-02-26T03:39:36.448Z,2.97
2018-02-26T03:42:05.328Z,3.00
2018-02-26T03:44:34.593Z,2.83
2018-02-26T03:47:02.689Z,1.90
2018-02-26T03:49:31.523Z,3.60
2018-02-26T03:52:05.958Z,2.43
2018-02-26T03:54:34.435Z,3.50
2018-02-26T03:57:08.622Z,2.67
2018-02-26T03:59:55.747Z,2.40
2018-02-26T04:02:23.895Z,2.50
2018-02-26T04:05:03.809Z,2.67
2018-02-26T04:07:32.771Z,2.80
2018-02-26T04:10:24.990Z,3.57
2018-02-26T04:12:59.258Z,2.90
2018-02-26T04:15:27.348Z,2.30
2018-02-26T04:18:05.946Z,2.33
2018-02-26T04:20:42.635Z,1.17
2018-02-26T04:23:10.760Z,1.97
2018-02-26T04:25:38.825Z,1.13
2018-02-26T04:28:08.837Z,1.37
2018-02-26T04:30:41.442Z,1.70
2018-02-26T04:33:09.568Z,1.53
2018-02-26T04:35:37.651Z,1.70
2018-02-26T04:38:05.758Z,1.43
2018-02-26T04:40:36.957Z,1.57
2018-02-26T04:43:05.131Z,2.00
2018-02-26T04:45:36.688Z,1.27
2018-02-26T04:48:25.794Z,1.30
2018-02-26T04:50:54.759Z,1.52
2018-02-26T04:53:24.684Z,1.30
2018-02-26T04:55:52.810Z,1.33
2018-02-26T04:58:21.902Z,0.93
2018-02-26T05:00:51.967Z,0.80
2018-02-26T05:03:20.112Z,1.77
2018-02-26T05:05:48.955Z,1.35
2018-02-26T05:08:18.024Z,1.43
2018-02-26T05:10:46.215Z,1.57
2018-02-26T05:13:14.360Z,0.90
2018-02-26T05:15:43.234Z,0.68
2018-02-26T05:18:11.353Z,1.20
2018-02-26T05:20:40.235Z,2.17
2018-02-26T05:23:09.114Z,0.90
2018-02-26T05:25:37.268Z,2.03
2018-02-26T05:28:05.508Z,0.93
2018-02-26T05:30:33.624Z,1.90
2018-02-26T05:33:08.421Z,1.80
2018-02-26T05:35:36.513Z,1.48
2018-02-26T05:38:04.639Z,1.03
2018-02-26T05:40:32.755Z,1.90
2018-02-26T05:43:01.825Z,1.83
2018-02-26T05:45:34.066Z,1.12
2018-02-26T05:48:09.398Z,0.95
2018-02-26T05:50:39.458Z,1.50
2018-02-26T05:53:07.580Z,1.23
2018-02-26T05:55:36.217Z,1.30
2018-02-26T05:58:04.426Z,1.40
2018-02-26T06:00:35.208Z,2.37
2018-02-26T06:03:04.140Z,1.23
2018-02-26T06:05:38.015Z,1.25
2018-02-26T06:08:19.647Z,1.27
2018-02-26T06:10:52.097Z,1.40
2018-02-26T06:13:21.060Z,1.20
2018-02-26T06:15:54.808Z,1.90
2018-02-26T06:18:23.880Z,1.40
2018-02-26T06:20:52.117Z,1.80
2018-02-26T06:23:20.239Z,1.30
2018-02-26T06:25:48.368Z,0.83
2018-02-26T06:28:20.850Z,1.85
2018-02-26T06:30:49.178Z,1.40
2018-02-26T06:33:17.275Z,1.75
2018-02-26T06:35:45.389Z,0.95
2018-02-26T06:38:13.531Z,0.85
2018-02-26T06:40:41.761Z,1.73
2018-02-26T06:43:09.975Z,1.30
2018-02-26T06:45:38.913Z,1.15
2018-02-26T06:48:07.140Z,0.98
2018-02-26T06:50:37.312Z,1.10
2018-02-26T06:53:07.228Z,1.30
2018-02-26T06:55:37.050Z,1.08
2018-02-26T06:58:06.071Z,1.85
2018-02-26T07:00:35.386Z,1.40
2018-02-26T07:03:03.509Z,1.45
2018-02-26T07:05:31.727Z,1.23
2018-02-26T07:07:59.871Z,1.40
2018-02-26T07:10:28.064Z,1.30
2018-02-26T07:12:56.171Z,1.90
2018-02-26T07:15:24.334Z,1.47
2018-02-26T07:17:52.442Z,1.58
2018-02-26T07:20:23.779Z,1.90
2018-02-26T07:22:54.943Z,1.60
2018-02-26T07:25:23.067Z,1.97
2018-02-26T07:27:51.186Z,1.45
2018-02-26T07:30:19.574Z,1.48
2018-02-26T07:32:48.875Z,1.02
2018-02-26T07:35:17.087Z,1.92
2018-02-26T07:37:45.255Z,2.12
2018-02-26T07:40:17.389Z,1.70
2018-02-26T07:42:45.551Z,1.45
2018-02-26T07:45:13.683Z,1.60
2018-02-26T07:47:43.262Z,1.50
2018-02-26T07:50:13.295Z,1.53
2018-02-26T07:52:41.439Z,2.47
2018-02-26T07:55:09.654Z,1.27
2018-02-26T07:57:37.772Z,1.63
2018-02-26T08:00:12.803Z,1.30
2018-02-26T08:02:41.957Z,1.90
2018-02-26T08:05:11.118Z,1.50
2018-02-26T08:07:44.755Z,1.67
2018-02-26T08:10:12.955Z,2.53
2018-02-26T08:12:41.225Z,1.50
2018-02-26T08:15:10.231Z,1.50
2018-02-26T08:17:38.382Z,1.37
2018-02-26T08:20:10.951Z,1.30
2018-02-26T08:22:42.867Z,1.13
2018-02-26T08:25:11.924Z,1.27
2018-02-26T08:27:41.034Z,0.90
2018-02-26T08:30:10.501Z,1.20
2018-02-26T08:32:38.872Z,0.70
2018-02-26T08:35:07.118Z,0.87
2018-02-26T08:37:35.501Z,0.83
2018-02-26T08:40:04.486Z,1.23
2018-02-26T08:45:09.289Z,0.93
2018-02-26T08:47:37.480Z,1.47
2018-02-26T08:50:06.683Z,0.80
2018-02-26T08:52:35.687Z,1.33
2018-02-26T08:55:03.900Z,1.20
2018-02-26T08:57:32.298Z,2.07
2018-02-26T09:00:00.478Z,0.60
2018-02-26T09:02:28.606Z,0.70
2018-02-26T09:04:58.080Z,0.73
2018-02-26T09:07:29.636Z,1.00
2018-02-26T09:10:16.497Z,1.37
2018-02-26T09:13:48.660Z,1.00
2018-02-26T09:16:17.912Z,2.17
2018-02-26T09:18:46.495Z,1.03
2018-02-26T09:21:14.791Z,1.10
2018-02-26T09:23:44.814Z,1.20
2018-02-26T09:26:13.363Z,0.83
2018-02-26T09:28:41.675Z,0.90
2018-02-26T09:31:12.571Z,0.90
2018-02-26T09:33:40.739Z,1.00
2018-02-26T09:36:08.990Z,1.13
2018-02-26T09:38:37.636Z,0.73
2018-02-26T09:41:09.562Z,1.10
2018-02-26T09:43:37.734Z,1.10
2018-02-26T09:46:08.478Z,1.40
2018-02-26T09:48:37.580Z,2.20
2018-02-26T09:51:08.654Z,1.50
2018-02-26T09:53:36.823Z,1.93
2018-02-26T09:56:05.773Z,1.23
2018-02-26T09:58:33.860Z,1.30
2018-02-26T10:01:05.853Z,1.40
2018-02-26T10:03:33.992Z,1.83
2018-02-26T10:06:02.982Z,2.00
2018-02-26T10:08:31.257Z,1.27
2018-02-26T10:11:01.019Z,1.87
2018-02-26T10:13:29.221Z,1.90
2018-02-26T10:16:01.695Z,2.00
2018-02-26T10:18:30.930Z,2.10
2018-02-26T10:20:59.130Z,2.47
2018-02-26T10:23:27.402Z,1.80
2018-02-26T10:25:55.677Z,2.00
2018-02-26T10:28:23.950Z,1.80
2018-02-26T10:30:52.101Z,2.40
2018-02-26T10:33:20.338Z,2.13
2018-02-26T10:35:48.441Z,2.17
2018-02-26T10:38:16.606Z,2.10
2018-02-26T10:40:44.735Z,1.90
2018-02-26T10:43:15.243Z,1.83
2018-02-26T10:45:43.427Z,2.30
2018-02-26T10:48:12.555Z,2.80
2018-02-26T10:50:40.680Z,2.33
2018-02-26T10:53:08.811Z,2.63
2018-02-26T10:55:36.927Z,2.43
2018-02-26T10:58:05.404Z,2.83
2018-02-26T11:00:33.693Z,2.07
2018-02-26T11:03:01.928Z,2.47
2018-02-26T11:05:30.984Z,2.90
2018-02-26T11:11:33.002Z,2.90
2018-02-26T11:14:05.468Z,2.80
2018-02-26T11:16:33.576Z,2.80
2018-02-26T11:19:01.693Z,2.87
2018-02-26T11:21:29.927Z,2.60
2018-02-26T11:24:02.494Z,3.10
2018-02-26T11:26:31.442Z,2.67
2018-02-26T11:28:59.891Z,2.63
2018-02-26T11:31:28.916Z,2.77
2018-02-26T11:34:00.760Z,3.00
2018-02-26T11:36:54.602Z,2.90
2018-02-26T11:39:34.517Z,2.20
2018-02-26T11:42:19.454Z,3.07
2018-02-26T11:44:57.323Z,2.23
2018-02-26T11:47:29.094Z,3.30
2018-02-26T11:50:00.751Z,3.20
2018-02-26T11:52:33.917Z,2.70
2018-02-26T11:55:03.975Z,2.77
2018-02-26T11:57:33.155Z,3.00
2018-02-26T12:00:01.428Z,2.23
2018-02-26T12:02:32.892Z,3.37
2018-02-26T12:05:02.217Z,2.53
2018-02-26T12:07:31.840Z,2.50
2018-02-26T12:09:59.971Z,2.30
2018-02-26T12:12:29.124Z,2.70
2018-02-26T12:14:57.232Z,2.27
2018-02-26T12:17:33.170Z,2.60
2018-02-26T12:20:01.684Z,2.10
2018-02-26T12:22:30.198Z,2.30
2018-02-26T12:25:00.300Z,2.10
2018-02-26T12:27:29.264Z,2.03
2018-02-26T12:29:57.441Z,3.40
2018-02-26T12:32:26.371Z,1.73
2018-02-26T12:34:55.581Z,1.80
2018-02-26T12:37:24.831Z,2.47
2018-02-26T12:39:54.909Z,2.23
2018-02-26T12:42:24.147Z,2.00
2018-02-26T12:44:52.485Z,1.57
2018-02-26T12:47:20.592Z,1.70
2018-02-26T12:49:48.807Z,2.00
2018-02-26T12:52:17.009Z,2.00
2018-02-26T12:54:49.321Z,2.10
2018-02-26T12:57:18.429Z,2.20
2018-02-26T12:59:47.520Z,2.17
2018-02-26T13:02:19.178Z,2.03
2018-02-26T13:04:47.259Z,1.93
2018-02-26T13:07:15.393Z,2.33
2018-02-26T13:09:43.488Z,3.10
2018-02-26T13:12:11.623Z,2.10
2018-02-26T13:14:39.755Z,2.57
2018-02-26T13:17:07.912Z,1.90
2018-02-26T13:19:36.028Z,2.30
2018-02-26T13:22:05.126Z,2.33
2018-02-26T13:24:33.335Z,1.80
2018-02-26T13:27:02.287Z,2.10
2018-02-26T13:29:31.205Z,2.10
2018-02-26T13:32:03.380Z,2.20
2018-02-26T13:34:31.487Z,1.73
2018-02-26T13:36:59.621Z,1.27
2018-02-26T13:39:27.702Z,1.83
2018-02-26T13:41:59.276Z,2.60
2018-02-26T13:44:29.697Z,1.97
2018-02-26T13:46:59.820Z,1.90
2018-02-26T13:49:27.937Z,2.20
2018-02-26T13:51:56.096Z,1.67
2018-02-26T13:54:24.215Z,1.80
2018-02-26T13:56:54.111Z,1.80
2018-02-26T13:59:22.279Z,1.90
2018-02-26T14:01:50.394Z,1.70
2018-02-26T14:04:18.646Z,1.83
2018-02-26T14:06:48.032Z,1.87
2018-02-26T14:09:16.308Z,1.57
2018-02-26T14:11:45.256Z,1.37
2018-02-26T14:14:13.453Z,1.50
2018-02-26T14:16:41.621Z,2.23
2018-02-26T14:19:09.797Z,1.23
2018-02-26T14:21:42.045Z,1.90
2018-02-26T14:24:11.045Z,2.03
2018-02-26T14:26:39.189Z,1.90
2018-02-26T14:29:07.395Z,2.30
2018-02-26T14:31:35.716Z,2.30
2018-02-26T14:34:04.583Z,2.00
2018-02-26T14:36:32.747Z,1.80
2018-02-26T14:39:00.840Z,1.50
2018-02-26T14:41:29.559Z,2.30
2018-02-26T14:43:57.800Z,1.60
2018-02-26T14:46:26.795Z,1.63
2018-02-26T14:48:54.929Z,1.37
2018-02-26T14:51:23.046Z,1.77
2018-02-26T14:53:51.977Z,1.43
2018-02-26T14:56:20.848Z,2.37
2018-02-26T14:58:50.076Z,2.23
2018-02-26T15:01:18.308Z,2.00
2018-02-26T15:04:10.564Z,2.43
2018-02-26T15:10:14.803Z,2.77
2018-02-26T15:12:59.522Z,2.27
2018-02-26T15:15:27.616Z,1.90
2018-02-26T15:17:56.099Z,2.10
2018-02-26T15:20:24.375Z,1.70
2018-02-26T15:22:54.202Z,1.87
2018-02-26T15:25:33.278Z,1.87
2018-02-26T15:28:06.644Z,1.50
2018-02-26T15:30:40.108Z,2.07
2018-02-26T15:33:11.248Z,1.97
2018-02-26T15:35:43.826Z,1.80
2018-02-26T15:38:24.692Z,2.17
2018-02-26T15:40:53.067Z,1.90
2018-02-26T15:43:21.240Z,1.80
2018-02-26T15:45:49.333Z,1.80
2018-02-26T15:48:18.531Z,1.70
2018-02-26T15:50:46.670Z,1.80
2018-02-26T15:53:15.046Z,1.70
2018-02-26T15:55:43.157Z,1.60
2018-02-26T15:58:12.173Z,1.93
2018-02-26T16:00:40.285Z,2.10
2018-02-26T16:03:10.344Z,2.13
2018-02-26T16:05:38.490Z,1.87
2018-02-26T16:08:07.564Z,1.60
2018-02-26T16:10:35.804Z,1.90
2018-02-26T16:13:03.894Z,1.60
2018-02-26T16:15:32.001Z,1.80
2018-02-26T16:18:01.279Z,1.60
2018-02-26T16:20:29.623Z,1.70
2018-02-26T16:22:57.728Z,1.37
2018-02-26T16:25:30.035Z,1.87
2018-02-26T16:27:59.040Z,1.67
2018-02-26T16:30:28.253Z,2.10
2018-02-26T16:33:09.777Z,1.80
2018-02-26T16:35:43.627Z,2.20
2018-02-26T16:38:13.303Z,2.33
2018-02-26T16:40:41.463Z,1.30
2018-02-26T16:43:17.285Z,1.67
2018-02-26T16:45:52.909Z,1.47
2018-02-26T16:48:26.903Z,1.30
2018-02-26T16:50:55.760Z,1.60
2018-02-26T16:53:24.158Z,1.83
2018-02-26T16:55:53.346Z,1.27
2018-02-26T16:58:22.587Z,1.70
2018-02-26T17:00:50.697Z,1.77
2018-02-26T17:03:23.293Z,1.20
2018-02-26T19:22:16.391Z,2.63
2018-02-26T19:24:45.999Z,2.90
2018-02-26T19:27:18.536Z,2.70
2018-02-26T19:29:48.598Z,2.35
2018-02-26T19:32:17.815Z,2.37
2018-02-26T19:34:49.220Z,2.25
2018-02-26T19:37:24.774Z,2.80
2018-02-26T19:39:53.685Z,2.53
2018-02-26T19:42:31.380Z,2.27
2018-02-26T19:45:02.422Z,2.12
2018-02-26T19:47:31.783Z,2.80
2018-02-26T19:49:59.998Z,2.30
2018-02-26T19:52:33.656Z,2.70
2018-02-26T21:16:05.037Z,3.25
2018-02-26T21:18:33.723Z,3.55
2018-02-26T21:21:02.442Z,3.58
2018-02-26T21:23:33.702Z,3.15
2018-02-26T21:26:06.711Z,3.23
2018-02-26T21:28:38.561Z,3.45
2018-02-26T21:31:08.204Z,3.03
2018-02-26T21:33:41.638Z,3.03
2018-02-26T21:36:12.950Z,3.30
2018-02-26T21:38:42.179Z,3.28
2018-02-26T21:41:10.337Z,3.00
2018-02-26T21:43:39.624Z,2.77
2018-02-26T21:46:08.047Z,3.33
2018-02-26T21:48:36.365Z,3.08
2018-02-26T21:51:05.569Z,3.70
2018-02-26T21:53:38.417Z,3.35
2018-02-26T21:56:10.392Z,3.00
2018-02-26T21:58:38.600Z,3.10
2018-02-26T22:01:08.781Z,3.00
2018-02-26T22:03:37.877Z,2.70
2018-02-26T22:06:06.818Z,2.80
2018-02-26T22:08:36.986Z,3.07
2018-02-26T22:11:06.999Z,3.00
2018-02-26T22:13:37.128Z,2.90
2018-02-26T22:16:05.224Z,2.40
2018-02-26T22:18:37.907Z,2.33
2018-02-26T22:21:07.016Z,3.10
2018-02-26T22:23:38.674Z,3.80
2018-02-26T22:26:06.778Z,2.67
2018-02-26T22:28:34.905Z,3.10
2018-02-26T22:31:03.130Z,2.70
2018-02-26T22:33:31.471Z,2.80
2018-02-26T22:36:00.457Z,2.77
2018-02-26T22:38:29.590Z,3.33
2018-02-26T22:40:59.463Z,2.63
2018-02-26T22:43:34.047Z,2.40
2018-02-26T22:46:02.270Z,2.80
2018-02-26T22:48:30.607Z,2.70
2018-02-26T22:50:58.772Z,2.97
2018-02-26T22:53:27.971Z,3.10
2018-02-26T22:55:56.092Z,3.03
2018-02-26T22:58:27.855Z,2.90
2018-02-26T23:00:57.572Z,2.97
2018-02-26T23:03:25.731Z,2.73
2018-02-26T23:05:58.534Z,3.07
2018-02-26T23:08:26.680Z,2.47
2018-02-26T23:10:55.680Z,2.67
2018-02-26T23:13:25.762Z,2.87
2018-02-26T23:15:53.870Z,2.87
2018-02-26T23:18:22.820Z,2.80
2018-02-26T23:21:21.740Z,3.53
2018-02-26T23:23:57.723Z,2.60
2018-02-26T23:26:26.817Z,3.10
2018-02-26T23:29:00.139Z,2.80
2018-02-26T23:31:28.258Z,2.67
2018-02-26T23:33:58.332Z,3.13
2018-02-26T23:36:26.434Z,2.57
2018-02-26T23:39:07.318Z,3.33
2018-02-26T23:41:35.522Z,3.07
2018-02-26T23:44:13.141Z,3.03
2018-02-26T23:46:42.555Z,2.87
2018-02-26T23:49:13.740Z,3.17
2018-02-26T23:51:43.971Z,2.93
2018-02-26T23:54:24.394Z,3.20
2018-02-26T23:56:52.508Z,4.07
2018-02-26T23:59:24.703Z,2.97
